NCAR-RAP Real-Time Weather Data

Output produced by METARs form (17 December 2018  07:58 UTC)
found at http://weather.rap.ucar.edu/surface/
 
RJDT 170700Z 29011G22KT 240V350 9999 FEW030 SCT040 09/M02 Q1016
RJDT 170600Z 27014G28KT 220V320 9999 FEW030 BKN040 09/M01 Q1015
RJDT 170500Z 28012G23KT 250V330 9999 FEW030 BKN035 09/01 Q1015
RJDT 170400Z 27010KT 210V320 9999 SCT040 09/01 Q1016
RJDT 170300Z 29011G21KT 220V330 9999 SCT040 09/M01 Q1016
RJDT 170200Z 27008KT 230V330 9999 FEW040 10/M01 Q1017
RJDT 170100Z 30011KT 250V340 9999 FEW040 09/01 Q1017
RJDT 170000Z 27011G21KT 210V320 9999 FEW040 09/M01 Q1017
RJDT 162300Z 28009G20KT 230V330 9999 SCT040 08/00 Q1016
RJDT 162230Z 28008G21KT 230V350 9999 SCT040 08/00 Q1016
RJDT 161100Z 01004KT 9999 FEW010 SCT090 BKN/// 07/06 Q1016
RJDT 161000Z 01003KT 340V060 9999 FEW010 SCT060 BKN080 08/07 Q1016
RJDT 160900Z 35005KT 310V020 9999 -RA FEW010 SCT050 BKN060 08/07 Q1016
RJDT 160800Z 34009KT 9999 -RA FEW008 SCT010 BKN020 09/07 Q1017
RJDT 160700Z 33005KT 290V360 9999 -RA FEW006 SCT008 BKN010 09/08 Q1017
RJDT 160600Z 31004KT 220V360 9000 -RA FEW005 SCT007 BKN010 09/08 Q1017
RJDT 160523Z 33010KT 290V350 7000 -RA FEW005 BKN007 BKN010 09/08 Q1017 RMK 1ST005 5ST007 6ST010 A3005
RJDT 160500Z 31009KT 270V330 8000 -RA FEW005 SCT008 BKN010 09/08 Q1018
RJDT 160443Z 30011KT 260V330 8000 -RA FEW004 SCT008 BKN010 09/08 Q1018 RMK 1ST004 4ST008 6ST010 A3006
RJDT 160421Z 33011KT 6000 -RA FEW004 BKN008 BKN020 09/08 Q1018 RMK 1ST004 5ST008 7SC020 A3006
RJDT 160400Z 32012KT 7000 RA FEW004 BKN008 BKN020 09/08 Q1018
RJDT 160340Z 32013KT 270V350 8000 RA FEW005 BKN009 BKN020 09/08 Q1018 RMK 1ST005 5ST009 7SC020 A3008
RJDT 160307Z 29004KT 260V340 8000 RA FEW015 BKN030 10/09 Q1018 RMK 1ST015 7SC030 A3008
RJDT 160300Z 29004KT 260V330 9999 -RA FEW020 BKN030 10/09 Q1018
RJDT 160200Z 27003KT 9999 -RA FEW030 SCT040 BKN050 12/07 Q1019
RJDT 160100Z VRB02KT 9999 FEW030 SCT045 BKN/// 12/06 Q1020
RJDT 160000Z 28003KT 9999 FEW030 BKN100 11/06 Q1021
RJDT 151100Z 28003KT 9999 FEW030 06/03 Q1028
RJDT 151000Z 29004KT 9999 FEW030 07/04 Q1028
RJDT 150900Z 29003KT 9999 SCT030 08/04 Q1028
RJDT 150800Z 30005KT 9999 FEW020 SCT030 08/03 Q1028
RJDT 150700Z 27004KT 250V320 9999 FEW020 SCT030 BKN/// 09/03 Q1028
RJDT 150600Z 32005KT 220V010 9999 FEW020 SCT030 09/03 Q1028
RJDT 150500Z 33005KT 290V020 9999 FEW030 SCT035 10/04 Q1028
RJDT 150400Z 27005KT 220V340 9999 FEW030 SCT035 10/03 Q1029
RJDT 150300Z 32004KT 260V030 9999 FEW030 SCT035 09/01 Q1030
RJDT 150200Z 32006KT 270V010 9999 FEW035 09/02 Q1031
RJDT 150100Z 30005KT 250V340 9999 FEW035 08/01 Q1032
RJDT 150000Z 30004KT 260V330 9999 FEW035 06/01 Q1031
RJDT 142300Z 30005KT 9999 FEW035 03/M00 Q1031
RJDT 142230Z 31005KT 9999 FEW035 04/00 Q1031